world map with MXX marked

MXX - Airport

This information may not be accurate or current and is not valid for navigation or flight planning. No warranty of fitness for any purpose is made or implied.

flag of Sweden

Donate via PayPal

Additional information is available on the NEW Great Circle Mapper

Location
City:  Mora, Dalarnas län, Sweden
Name:Siljan
ICAO / IATA:ESKM / MXX

Details
Type:Airport (Aerodrome, Airfield)
Latitude:60°57'28"N (60.957908)
Longitude:14°30'41"E (14.511383)
Datum:WGS 1984
Elevation:634 ft (193 m)
Runways:1
Longest:5951 × 148 ft (1814 × 45 m)

Time
Timezone:UTC+1 (DST+4)
Local Time:

Weather
METAR:ESKM  041350Z AUTO 05003KT 9999 OVC021/// M13/M15 Q1014

Related Locations
Nearby:
Farthest:NZTB: 11219 mi / 18055 km
Terra Nova Bay [Mario Zucchelli Station], AQ

Find:

   beyond  
but within

Other Information
Maps:
Links:
Sources:

  


 


Great Circle Mapper   Great Circle Mapper
Great Circle Mapper FAQ   Great Circle Mapper FAQ
  Karl's Home Page
KLS²   KLS² Home
   GC on Facebook
Airlines of the World   Airlines of the World
Donate via PayPal


Copyright © 2004-2020, Karl L. Swartz. All rights reserved.
All trademarks mentioned herein belong to their respective owners.

Please see credits for attribution and copyright information.

Karl Swartz <karl@kls2.com>
  Powered by FreeBSD
Valid HTML 4.01!
Labeled with ICRA
hCard Microformat
Geo Microformat